Time;durP1;ratioP1;P1;durP2;ratioP2;P2;SDS_P1;SDS_P2;PMS_P1;PMS_P2;Temp;Humidity;BMP_temperature;BMP_pressure;BME280_temperature;BME280_humidity;BME280_pressure;Samples;Min_cycle;Max_cycle;Signal;HPM_P1;HPM_P2
2023/08/15 00:00:30;;;;;;;6.65;4.65;;;;;;;;;;5047845;28;20217;-81
2023/08/15 00:02:57;;;;;;;6.75;5.32;;;;;;;;;;5042049;28;20322;-81
2023/08/15 00:05:24;;;;;;;6.57;5.13;;;;;;;;;;5045036;28;20750;-81
2023/08/15 00:07:51;;;;;;;6.57;5.95;;;;;;;;;;5042102;28;20249;-81
2023/08/15 00:10:18;;;;;;;6.30;5.70;;;;;;;;;;5035724;28;20217;-81
2023/08/15 00:12:45;;;;;;;9.10;5.40;;;;;;;;;;5050384;28;20229;-81
2023/08/15 00:15:13;;;;;;;7.63;5.85;;;;;;;;;;5039009;28;20230;-81
2023/08/15 00:17:41;;;;;;;6.28;4.95;;;;;;;;;;5044881;28;20709;-81
2023/08/15 00:20:09;;;;;;;7.03;6.30;;;;;;;;;;5046080;28;20676;-81
2023/08/15 00:22:36;;;;;;;6.68;5.97;;;;;;;;;;5044160;28;20233;-81
2023/08/15 00:25:03;;;;;;;7.10;4.80;;;;;;;;;;5040144;28;20252;-81
2023/08/15 00:27:30;;;;;;;5.93;4.80;;;;;;;;;;5046486;28;20233;-81
2023/08/15 00:29:57;;;;;;;5.40;4.80;;;;;;;;;;5046185;28;20233;-81
2023/08/15 00:32:24;;;;;;;5.93;5.40;;;;;;;;;;5046116;28;20716;-81
2023/08/15 00:34:52;;;;;;;6.82;5.38;;;;;;;;;;5038368;28;20229;-81
2023/08/15 00:37:19;;;;;;;4.50;4.15;;;;;;;;;;5040831;28;20225;-81
2023/08/15 00:39:46;;;;;;;5.40;4.90;;;;;;;;;;5051824;28;20206;-81
2023/08/15 00:42:13;;;;;;;6.15;5.07;;;;;;;;;;5042029;28;20237;-81
2023/08/15 00:44:42;;;;;;;5.53;4.90;;;;;;;;;;5044164;28;20223;-81
2023/08/15 00:47:10;;;;;;;6.03;5.38;;;;;;;;;;5045373;28;20316;-81
2023/08/15 00:49:37;;;;;;;5.28;4.75;;;;;;;;;;5054752;28;20198;-81
2023/08/15 00:52:06;;;;;;;5.35;4.75;;;;;;;;;;5044256;28;20230;-81
2023/08/15 00:54:33;;;;;;;5.25;4.25;;;;;;;;;;5047420;28;20226;-80
2023/08/15 00:57:00;;;;;;;6.40;4.38;;;;;;;;;;5053548;28;20625;-81
2023/08/15 00:59:27;;;;;;;5.32;4.45;;;;;;;;;;5053931;28;20222;-80
2023/08/15 01:01:54;;;;;;;5.35;4.90;;;;;;;;;;5054199;28;20222;-80
2023/08/15 01:04:21;;;;;;;4.90;4.50;;;;;;;;;;5032486;28;20237;-80
2023/08/15 01:06:49;;;;;;;4.28;3.97;;;;;;;;;;5054247;28;20230;-80
2023/08/15 01:09:17;;;;;;;4.07;3.78;;;;;;;;;;5052714;28;20218;-81
2023/08/15 01:11:46;;;;;;;5.50;3.97;;;;;;;;;;5048644;28;20229;-80
2023/08/15 01:14:16;;;;;;;6.40;3.78;;;;;;;;;;5053519;28;20229;-81
2023/08/15 01:16:45;;;;;;;5.30;4.80;;;;;;;;;;5049451;28;20234;-81
2023/08/15 01:19:16;;;;;;;5.30;4.32;;;;;;;;;;5050164;28;20226;-81
2023/08/15 01:21:45;;;;;;;5.18;4.53;;;;;;;;;;5048072;28;20222;-81
2023/08/15 01:24:13;;;;;;;4.45;4.07;;;;;;;;;;5043545;28;20231;-80
2023/08/15 01:26:40;;;;;;;4.90;4.38;;;;;;;;;;5052239;28;20241;-80
2023/08/15 01:29:07;;;;;;;4.60;4.20;;;;;;;;;;5049737;28;20210;-80
2023/08/15 01:31:36;;;;;;;6.10;4.07;;;;;;;;;;5042779;28;20291;-81
2023/08/15 01:34:06;;;;;;;4.47;4.07;;;;;;;;;;5050224;28;20225;-81
2023/08/15 01:36:38;;;;;;;9.05;4.53;;;;;;;;;;5051879;28;20229;-81
2023/08/15 01:39:07;;;;;;;5.55;5.05;;;;;;;;;;5039066;28;20313;-81
2023/08/15 01:41:39;;;;;;;6.88;4.10;;;;;;;;;;5047933;28;20222;-81
2023/08/15 01:44:08;;;;;;;4.55;4.18;;;;;;;;;;5051572;28;20337;-80
2023/08/15 01:46:35;;;;;;;4.40;4.05;;;;;;;;;;5050438;28;20236;-81
2023/08/15 01:49:02;;;;;;;4.32;4.03;;;;;;;;;;5044033;28;20669;-81
2023/08/15 01:51:29;;;;;;;4.50;4.00;;;;;;;;;;5051683;28;20229;-81
2023/08/15 01:53:56;;;;;;;4.70;4.30;;;;;;;;;;5047982;28;20207;-81
2023/08/15 01:56:23;;;;;;;4.10;3.70;;;;;;;;;;5043558;28;20226;-81
2023/08/15 01:58:51;;;;;;;4.85;4.00;;;;;;;;;;5052848;28;20304;-80
2023/08/15 02:01:18;;;;;;;4.68;3.65;;;;;;;;;;5040420;28;20230;-81
2023/08/15 02:03:45;;;;;;;6.15;4.18;;;;;;;;;;5046984;28;20202;-81
2023/08/15 02:06:12;;;;;;;5.22;4.43;;;;;;;;;;5042177;28;20230;-81
2023/08/15 02:08:40;;;;;;;3.83;3.53;;;;;;;;;;5046464;28;20209;-80
2023/08/15 02:11:07;;;;;;;3.80;3.50;;;;;;;;;;5051955;28;20554;-80
2023/08/15 02:13:34;;;;;;;4.75;4.07;;;;;;;;;;5051075;28;20202;-81
2023/08/15 02:16:02;;;;;;;6.43;4.28;;;;;;;;;;5048145;28;20237;-81
2023/08/15 02:18:30;;;;;;;4.50;4.10;;;;;;;;;;5052197;28;20226;-81
2023/08/15 02:20:57;;;;;;;4.68;3.97;;;;;;;;;;5050779;28;20206;-81
2023/08/15 02:23:24;;;;;;;4.43;4.03;;;;;;;;;;5051877;28;20206;-81
2023/08/15 02:25:51;;;;;;;4.93;4.38;;;;;;;;;;5051803;28;20236;-81
2023/08/15 02:28:18;;;;;;;4.32;3.88;;;;;;;;;;5049335;28;20212;-81
2023/08/15 02:30:45;;;;;;;5.72;4.20;;;;;;;;;;5046055;28;20217;-82
2023/08/15 02:33:14;;;;;;;6.18;4.10;;;;;;;;;;5035343;28;20211;-80
2023/08/15 02:35:42;;;;;;;4.43;4.00;;;;;;;;;;5051726;28;20232;-81
2023/08/15 02:38:09;;;;;;;4.43;4.03;;;;;;;;;;5051222;28;20272;-81
2023/08/15 02:40:36;;;;;;;4.32;4.00;;;;;;;;;;5051865;28;20690;-80
2023/08/15 02:43:04;;;;;;;5.75;5.05;;;;;;;;;;5046601;28;20708;-81
2023/08/15 02:45:31;;;;;;;4.18;3.88;;;;;;;;;;5046946;28;20229;-81
2023/08/15 02:47:58;;;;;;;4.25;3.83;;;;;;;;;;5045531;28;20631;-81
2023/08/15 02:50:27;;;;;;;5.20;4.70;;;;;;;;;;5041127;28;20568;-81
2023/08/15 02:52:54;;;;;;;4.85;4.45;;;;;;;;;;5047808;28;20258;-80
2023/08/15 02:55:21;;;;;;;10.20;4.97;;;;;;;;;;5048656;28;22258;-81
2023/08/15 02:57:49;;;;;;;5.15;4.30;;;;;;;;;;5047348;28;20225;-82
2023/08/15 03:00:16;;;;;;;7.18;4.78;;;;;;;;;;5050223;28;20240;-81
2023/08/15 03:02:43;;;;;;;8.48;4.95;;;;;;;;;;5047519;28;20230;-81
2023/08/15 03:05:10;;;;;;;8.13;5.78;;;;;;;;;;5050417;28;20252;-81
2023/08/15 03:07:38;;;;;;;7.10;6.13;;;;;;;;;;5042046;28;20230;-81
2023/08/15 03:10:05;;;;;;;6.85;6.10;;;;;;;;;;5042930;28;20687;-80
2023/08/15 03:12:32;;;;;;;11.02;6.75;;;;;;;;;;5040738;28;20235;-81
2023/08/15 03:14:59;;;;;;;11.45;7.32;;;;;;;;;;5039696;28;20283;-81
2023/08/15 03:17:26;;;;;;;7.47;6.75;;;;;;;;;;5047586;28;20233;-81
2023/08/15 03:19:54;;;;;;;10.27;7.05;;;;;;;;;;5049272;28;20227;-81
2023/08/15 03:22:21;;;;;;;9.35;7.55;;;;;;;;;;5042645;28;20229;-81
2023/08/15 03:24:49;;;;;;;8.35;6.90;;;;;;;;;;5044362;28;20303;-81
2023/08/15 03:27:16;;;;;;;8.80;7.13;;;;;;;;;;5033513;28;20238;-81
2023/08/15 03:29:43;;;;;;;8.60;6.75;;;;;;;;;;5037560;28;20206;-81
2023/08/15 03:32:10;;;;;;;6.63;6.03;;;;;;;;;;5040208;28;20233;-81
2023/08/15 03:37:40;;;;;;;7.10;6.40;;;;;;;;;;5029576;28;20254;-81
2023/08/15 03:40:10;;;;;;;6.68;5.57;;;;;;;;;;5033358;28;20276;-80
2023/08/15 03:42:37;;;;;;;8.95;6.03;;;;;;;;;;5033467;28;20226;-81
2023/08/15 03:45:04;;;;;;;6.53;5.82;;;;;;;;;;5043572;28;20225;-81
2023/08/15 03:47:31;;;;;;;10.35;6.28;;;;;;;;;;5046097;28;20222;-81
2023/08/15 03:49:59;;;;;;;11.48;6.90;;;;;;;;;;5046495;28;20210;-81
2023/08/15 03:52:26;;;;;;;6.60;6.00;;;;;;;;;;5040332;28;20230;-81
2023/08/15 03:54:53;;;;;;;9.07;5.80;;;;;;;;;;5045503;28;20237;-81
2023/08/15 03:57:21;;;;;;;7.57;6.88;;;;;;;;;;5040929;28;20234;-81
2023/08/15 03:59:48;;;;;;;8.38;7.50;;;;;;;;;;5043990;28;20222;-81
2023/08/15 04:02:15;;;;;;;8.98;7.43;;;;;;;;;;5048400;28;20233;-81
2023/08/15 04:04:42;;;;;;;9.85;7.15;;;;;;;;;;5048815;28;20579;-81
2023/08/15 04:07:10;;;;;;;10.15;8.10;;;;;;;;;;5048983;28;20233;-81
2023/08/15 04:09:37;;;;;;;10.52;7.35;;;;;;;;;;5043748;28;20221;-89
2023/08/15 04:12:04;;;;;;;7.47;6.78;;;;;;;;;;5051051;28;20229;-83
2023/08/15 04:14:32;;;;;;;11.73;7.97;;;;;;;;;;5038892;28;20828;-83
2023/08/15 04:16:59;;;;;;;8.48;7.68;;;;;;;;;;5055550;28;20233;-82
2023/08/15 04:19:26;;;;;;;10.77;9.15;;;;;;;;;;5053116;28;20230;-82
2023/08/15 04:21:53;;;;;;;10.05;9.05;;;;;;;;;;5054267;28;20229;-84
2023/08/15 04:24:20;;;;;;;11.80;9.52;;;;;;;;;;5054576;28;20230;-83
2023/08/15 04:26:48;;;;;;;11.75;9.35;;;;;;;;;;5048562;28;20226;-83
2023/08/15 04:29:15;;;;;;;11.25;9.43;;;;;;;;;;5044248;28;20210;-82
2023/08/15 04:31:43;;;;;;;13.88;11.35;;;;;;;;;;5049430;28;20222;-82
2023/08/15 04:34:10;;;;;;;13.63;11.98;;;;;;;;;;5051219;28;20230;-82
2023/08/15 04:36:38;;;;;;;16.17;11.77;;;;;;;;;;5053949;28;20230;-83
2023/08/15 04:39:06;;;;;;;13.73;12.05;;;;;;;;;;5047706;28;20245;-83
2023/08/15 04:41:33;;;;;;;18.00;14.00;;;;;;;;;;5036862;28;20225;-81
2023/08/15 04:44:00;;;;;;;16.85;14.95;;;;;;;;;;5043268;28;20230;-80
2023/08/15 04:46:27;;;;;;;21.25;16.17;;;;;;;;;;5040344;28;20244;-79
2023/08/15 04:48:55;;;;;;;26.08;17.08;;;;;;;;;;5040394;28;20206;-80
2023/08/15 04:51:22;;;;;;;22.55;17.33;;;;;;;;;;5044082;28;20230;-80
2023/08/15 04:53:50;;;;;;;24.95;18.65;;;;;;;;;;5047976;28;20206;-79
2023/08/15 04:56:17;;;;;;;24.42;18.38;;;;;;;;;;5042676;28;20600;-79
2023/08/15 04:58:44;;;;;;;25.50;18.38;;;;;;;;;;5053587;28;20588;-79
2023/08/15 05:01:11;;;;;;;26.17;19.13;;;;;;;;;;5053337;28;20607;-79
2023/08/15 05:03:38;;;;;;;23.75;19.00;;;;;;;;;;5049852;28;20695;-79
2023/08/15 05:06:06;;;;;;;24.48;19.00;;;;;;;;;;5040850;28;20732;-80
2023/08/15 05:08:33;;;;;;;24.75;18.35;;;;;;;;;;5053487;28;20210;-79
2023/08/15 05:11:01;;;;;;;21.73;17.60;;;;;;;;;;5053155;28;20202;-80
2023/08/15 05:13:28;;;;;;;20.85;16.70;;;;;;;;;;5053635;28;20280;-79
2023/08/15 05:15:55;;;;;;;32.50;17.38;;;;;;;;;;5046354;28;20222;-79
2023/08/15 05:18:25;;;;;;;20.65;16.85;;;;;;;;;;5043427;28;20210;-80
2023/08/15 05:20:52;;;;;;;22.58;16.83;;;;;;;;;;5047977;28;20720;-80
2023/08/15 05:23:21;;;;;;;20.17;16.77;;;;;;;;;;5052092;28;20221;-79
2023/08/15 05:25:48;;;;;;;23.15;18.13;;;;;;;;;;5053402;28;20226;-80
2023/08/15 05:28:15;;;;;;;26.50;18.40;;;;;;;;;;5037468;28;20210;-80
2023/08/15 05:30:44;;;;;;;25.67;19.35;;;;;;;;;;5053496;28;20221;-80
2023/08/15 05:33:11;;;;;;;26.40;19.10;;;;;;;;;;5053130;28;20359;-80
2023/08/15 05:35:38;;;;;;;24.95;18.67;;;;;;;;;;5052878;28;20715;-80
2023/08/15 05:38:05;;;;;;;20.08;17.48;;;;;;;;;;5052490;28;20253;-80
2023/08/15 05:40:34;;;;;;;21.30;14.68;;;;;;;;;;5041875;28;20235;-80
2023/08/15 05:43:01;;;;;;;19.73;14.93;;;;;;;;;;5047833;28;20316;-80
2023/08/15 05:45:29;;;;;;;15.93;13.48;;;;;;;;;;5036352;28;20294;-80
2023/08/15 05:47:56;;;;;;;15.00;12.90;;;;;;;;;;5052568;28;20279;-81
2023/08/15 05:50:23;;;;;;;13.40;11.90;;;;;;;;;;5052790;28;20217;-81
2023/08/15 05:52:50;;;;;;;19.50;13.90;;;;;;;;;;5052420;28;20222;-81
2023/08/15 05:55:17;;;;;;;18.10;14.25;;;;;;;;;;5052742;28;20230;-82
2023/08/15 05:57:45;;;;;;;15.05;11.90;;;;;;;;;;5049019;28;20222;-80
2023/08/15 06:00:13;;;;;;;10.55;9.45;;;;;;;;;;5049232;28;20609;-81
2023/08/15 06:02:40;;;;;;;13.45;9.30;;;;;;;;;;5052204;28;20225;-81
2023/08/15 06:05:08;;;;;;;11.43;9.23;;;;;;;;;;5052352;28;20234;-82
2023/08/15 06:07:35;;;;;;;11.95;8.75;;;;;;;;;;5052317;28;20276;-82
2023/08/15 06:10:02;;;;;;;13.68;9.50;;;;;;;;;;5052993;28;20301;-81
2023/08/15 06:12:29;;;;;;;13.68;9.25;;;;;;;;;;5065641;28;20238;-81
2023/08/15 06:14:57;;;;;;;8.35;7.55;;;;;;;;;;5057593;28;20234;-81
2023/08/15 06:17:24;;;;;;;11.30;8.82;;;;;;;;;;5052184;28;20620;-82
2023/08/15 06:19:53;;;;;;;9.55;7.30;;;;;;;;;;5054307;28;20229;-82
2023/08/15 06:22:20;;;;;;;10.68;7.93;;;;;;;;;;5056908;28;20229;-81
2023/08/15 06:24:47;;;;;;;9.80;8.00;;;;;;;;;;5057513;28;20222;-81
2023/08/15 06:27:14;;;;;;;8.15;7.32;;;;;;;;;;5057307;28;20309;-82
2023/08/15 06:29:41;;;;;;;13.07;8.32;;;;;;;;;;5058608;28;20202;-82
2023/08/15 06:32:09;;;;;;;9.18;7.28;;;;;;;;;;5060402;28;20230;-82
2023/08/15 06:34:37;;;;;;;7.65;6.90;;;;;;;;;;5071718;28;20213;-81
2023/08/15 06:37:04;;;;;;;7.22;6.45;;;;;;;;;;5056893;28;20639;-82
2023/08/15 06:39:31;;;;;;;9.10;6.40;;;;;;;;;;5052378;28;20210;-81
2023/08/15 06:41:58;;;;;;;7.30;6.10;;;;;;;;;;5043451;28;20610;-81
2023/08/15 06:44:25;;;;;;;7.60;6.28;;;;;;;;;;5051810;28;20229;-81
2023/08/15 06:46:52;;;;;;;6.40;5.78;;;;;;;;;;5041801;28;20238;-82
2023/08/15 06:49:20;;;;;;;7.18;5.28;;;;;;;;;;5032659;28;20217;-82
2023/08/15 06:51:47;;;;;;;6.38;4.95;;;;;;;;;;5036384;28;20754;-82
2023/08/15 06:54:14;;;;;;;5.85;4.97;;;;;;;;;;5052056;28;20234;-81
2023/08/15 06:56:41;;;;;;;5.15;4.40;;;;;;;;;;5051407;28;20225;-82
2023/08/15 06:59:09;;;;;;;4.22;3.83;;;;;;;;;;5044201;28;20202;-82
2023/08/15 07:01:36;;;;;;;3.95;3.60;;;;;;;;;;5051244;28;20234;-82
2023/08/15 07:04:03;;;;;;;5.35;3.30;;;;;;;;;;5051818;28;20230;-83
2023/08/15 07:06:32;;;;;;;4.10;3.42;;;;;;;;;;5051777;28;20750;-83
2023/08/15 07:08:59;;;;;;;5.30;3.50;;;;;;;;;;5044483;28;20268;-82
2023/08/15 07:11:27;;;;;;;6.95;3.35;;;;;;;;;;5053319;28;20233;-83
2023/08/15 07:13:54;;;;;;;4.03;3.03;;;;;;;;;;5046496;28;20220;-83
2023/08/15 07:16:23;;;;;;;3.30;3.00;;;;;;;;;;5048615;28;20230;-82
2023/08/15 07:18:50;;;;;;;5.97;3.38;;;;;;;;;;5045691;28;20210;-83
2023/08/15 07:21:17;;;;;;;3.10;2.45;;;;;;;;;;5051908;28;20672;-82
2023/08/15 07:23:46;;;;;;;3.75;2.88;;;;;;;;;;5045697;28;20211;-82
2023/08/15 07:26:13;;;;;;;2.95;2.65;;;;;;;;;;5033886;28;20238;-83
2023/08/15 07:28:40;;;;;;;2.60;2.40;;;;;;;;;;5051248;28;20209;-82
2023/08/15 07:31:07;;;;;;;3.00;2.42;;;;;;;;;;5050699;28;20232;-83
2023/08/15 07:33:34;;;;;;;2.60;2.40;;;;;;;;;;5051726;28;20210;-82
2023/08/15 07:36:01;;;;;;;4.00;2.33;;;;;;;;;;5044737;28;20226;-82
2023/08/15 07:38:28;;;;;;;2.60;2.40;;;;;;;;;;5047981;28;20258;-83
2023/08/15 07:40:57;;;;;;;3.38;2.10;;;;;;;;;;5039207;28;20223;-83
2023/08/15 07:43:24;;;;;;;3.38;2.08;;;;;;;;;;5032305;28;20206;-82
2023/08/15 07:45:51;;;;;;;2.90;2.40;;;;;;;;;;5037746;28;20712;-83
2023/08/15 07:48:18;;;;;;;2.50;2.05;;;;;;;;;;5031300;28;20207;-82
2023/08/15 07:50:45;;;;;;;3.83;2.20;;;;;;;;;;5038084;28;20213;-83
2023/08/15 07:53:13;;;;;;;2.60;2.17;;;;;;;;;;5055523;28;20218;-82
2023/08/15 07:55:40;;;;;;;2.63;2.42;;;;;;;;;;5052010;28;20253;-83
2023/08/15 07:58:08;;;;;;;3.17;2.10;;;;;;;;;;5034946;28;20234;-83
2023/08/15 08:00:35;;;;;;;2.30;2.10;;;;;;;;;;5045686;28;20305;-83
2023/08/15 08:03:02;;;;;;;2.90;2.28;;;;;;;;;;5054495;28;20230;-83
2023/08/15 08:05:29;;;;;;;2.50;2.30;;;;;;;;;;5036822;28;20235;-83
2023/08/15 08:07:57;;;;;;;2.70;2.50;;;;;;;;;;5034685;28;20767;-83
2023/08/15 08:10:24;;;;;;;3.92;2.35;;;;;;;;;;5034839;28;20206;-83
2023/08/15 08:12:51;;;;;;;3.42;2.28;;;;;;;;;;5034558;28;20230;-83
2023/08/15 08:15:23;;;;;;;2.95;2.33;;;;;;;;;;5043115;28;20687;-83
2023/08/15 08:17:50;;;;;;;2.75;2.35;;;;;;;;;;5030920;28;20237;-83
2023/08/15 08:20:17;;;;;;;3.45;2.17;;;;;;;;;;5047021;28;20238;-84
2023/08/15 08:22:44;;;;;;;2.60;2.40;;;;;;;;;;5053830;28;20222;-84
2023/08/15 08:25:12;;;;;;;3.33;2.28;;;;;;;;;;5047619;28;20724;-84
2023/08/15 08:27:39;;;;;;;3.45;2.72;;;;;;;;;;5053169;28;20757;-83
2023/08/15 08:30:07;;;;;;;2.50;2.30;;;;;;;;;;5040649;28;20264;-83
2023/08/15 08:32:35;;;;;;;2.55;2.35;;;;;;;;;;5043719;28;20664;-82
2023/08/15 08:35:04;;;;;;;2.40;2.20;;;;;;;;;;5040184;28;20317;-83
2023/08/15 08:37:31;;;;;;;2.78;2.13;;;;;;;;;;5035747;28;20313;-83
2023/08/15 08:39:58;;;;;;;4.60;2.13;;;;;;;;;;5054315;28;20252;-82
2023/08/15 08:42:25;;;;;;;4.00;2.47;;;;;;;;;;5046149;28;20254;-82
2023/08/15 08:44:52;;;;;;;3.58;2.42;;;;;;;;;;5054179;28;20424;-83
2023/08/15 08:47:20;;;;;;;3.67;2.05;;;;;;;;;;5053983;28;20229;-82
2023/08/15 08:49:49;;;;;;;2.08;1.90;;;;;;;;;;5054146;28;20623;-82
2023/08/15 08:52:17;;;;;;;2.35;2.13;;;;;;;;;;5053663;28;20881;-83
2023/08/15 08:54:44;;;;;;;2.35;2.15;;;;;;;;;;5053933;28;20221;-84
2023/08/15 08:57:12;;;;;;;2.10;1.92;;;;;;;;;;5053888;28;20248;-84
2023/08/15 08:59:41;;;;;;;2.45;1.95;;;;;;;;;;5036551;28;20237;-83
2023/08/15 09:02:11;;;;;;;2.80;2.13;;;;;;;;;;5053662;28;20237;-83
2023/08/15 09:04:38;;;;;;;2.25;2.08;;;;;;;;;;5054407;28;20265;-84
2023/08/15 09:07:06;;;;;;;2.63;2.40;;;;;;;;;;5053712;28;20291;-84
2023/08/15 09:09:33;;;;;;;4.25;2.80;;;;;;;;;;5053930;28;20702;-83
2023/08/15 09:12:00;;;;;;;2.00;1.90;;;;;;;;;;5054382;28;20226;-83
2023/08/15 09:14:28;;;;;;;1.85;1.75;;;;;;;;;;5054020;28;20230;-83
2023/08/15 09:16:55;;;;;;;2.63;2.10;;;;;;;;;;5054107;28;20317;-83
2023/08/15 09:19:22;;;;;;;2.00;1.90;;;;;;;;;;5054494;28;20224;-83
2023/08/15 09:21:49;;;;;;;2.58;1.90;;;;;;;;;;5054102;28;20233;-83
2023/08/15 09:24:17;;;;;;;2.92;1.80;;;;;;;;;;5055043;28;20234;-84
2023/08/15 09:26:44;;;;;;;2.55;2.00;;;;;;;;;;5045900;28;20237;-84
2023/08/15 09:29:13;;;;;;;2.10;1.90;;;;;;;;;;5055125;28;20691;-84
2023/08/15 09:31:40;;;;;;;2.30;2.10;;;;;;;;;;5053358;28;20600;-83
2023/08/15 09:34:10;;;;;;;2.78;1.90;;;;;;;;;;5049180;28;20256;-84
2023/08/15 09:36:37;;;;;;;2.33;1.90;;;;;;;;;;5053267;28;20225;-84
2023/08/15 09:39:08;;;;;;;2.00;1.80;;;;;;;;;;5048063;28;20217;-87
2023/08/15 09:41:42;;;;;;;1.73;1.63;;;;;;;;;;5051116;28;20238;-86
2023/08/15 09:44:09;;;;;;;1.80;1.67;;;;;;;;;;5053521;28;20229;-88
2023/08/15 09:46:36;;;;;;;2.50;1.80;;;;;;;;;;5045084;28;20226;-86
2023/08/15 09:49:04;;;;;;;3.00;1.80;;;;;;;;;;5053130;28;20217;-85
2023/08/15 09:51:31;;;;;;;3.58;1.75;;;;;;;;;;5052633;28;20602;-85
2023/08/15 09:53:59;;;;;;;1.92;1.55;;;;;;;;;;5052713;28;20571;-86
2023/08/15 09:56:26;;;;;;;1.88;1.52;;;;;;;;;;5052870;28;20230;-85
2023/08/15 09:58:55;;;;;;;4.28;1.80;;;;;;;;;;5052111;28;20221;-84
2023/08/15 10:01:24;;;;;;;2.13;2.00;;;;;;;;;;5052817;28;20246;-84
2023/08/15 10:03:52;;;;;;;3.58;1.73;;;;;;;;;;5025009;28;20294;-85
2023/08/15 10:06:20;;;;;;;2.60;2.10;;;;;;;;;;5040042;28;20233;-84
2023/08/15 10:08:47;;;;;;;2.22;1.60;;;;;;;;;;5033965;28;20712;-84
2023/08/15 10:11:15;;;;;;;2.45;1.67;;;;;;;;;;5041262;28;20234;-84
2023/08/15 10:13:42;;;;;;;2.40;1.83;;;;;;;;;;5057271;28;20217;-84
2023/08/15 10:16:13;;;;;;;1.67;1.55;;;;;;;;;;5042833;28;20234;-85
2023/08/15 10:18:40;;;;;;;2.08;1.77;;;;;;;;;;5053270;28;20214;-84
2023/08/15 10:21:07;;;;;;;2.95;2.08;;;;;;;;;;5047405;28;20245;-84
2023/08/15 10:23:35;;;;;;;2.00;1.83;;;;;;;;;;5043909;28;20214;-84
2023/08/15 10:26:02;;;;;;;2.13;1.77;;;;;;;;;;5041355;28;20230;-85
2023/08/15 10:28:29;;;;;;;1.95;1.83;;;;;;;;;;5049549;28;20206;-84
2023/08/15 10:30:57;;;;;;;4.63;1.90;;;;;;;;;;5044758;28;20660;-86
2023/08/15 10:33:26;;;;;;;2.38;1.98;;;;;;;;;;5045122;28;20215;-85
2023/08/15 10:36:06;;;;;;;2.40;2.20;;;;;;;;;;5032478;28;20704;-85
2023/08/15 10:38:36;;;;;;;3.65;2.20;;;;;;;;;;5040808;28;20240;-85
2023/08/15 10:41:04;;;;;;;2.85;2.42;;;;;;;;;;5033585;28;20340;-85
2023/08/15 10:43:33;;;;;;;3.95;2.30;;;;;;;;;;5031905;28;20199;-85
2023/08/15 10:46:01;;;;;;;2.25;1.70;;;;;;;;;;5045625;28;20580;-86
2023/08/15 10:48:39;;;;;;;3.67;2.33;;;;;;;;;;5041440;28;20210;-85
2023/08/15 10:51:06;;;;;;;2.60;2.00;;;;;;;;;;5051450;28;20233;-85
2023/08/15 10:53:33;;;;;;;2.20;2.00;;;;;;;;;;5042681;28;20206;-85
2023/08/15 10:56:01;;;;;;;4.18;1.77;;;;;;;;;;5050815;28;20229;-85
2023/08/15 10:58:28;;;;;;;5.10;2.05;;;;;;;;;;5051487;28;20221;-85
2023/08/15 11:00:56;;;;;;;2.17;2.00;;;;;;;;;;5045303;28;20296;-85
2023/08/15 11:03:24;;;;;;;4.03;2.65;;;;;;;;;;5043066;28;20221;-85
2023/08/15 11:05:52;;;;;;;2.83;2.10;;;;;;;;;;5031097;28;20230;-88
2023/08/15 11:08:20;;;;;;;2.95;2.35;;;;;;;;;;5039578;28;20222;-90
2023/08/15 11:10:49;;;;;;;2.90;2.08;;;;;;;;;;5040173;28;20214;-88
2023/08/15 11:13:16;;;;;;;5.35;2.38;;;;;;;;;;5027353;28;20214;-89
2023/08/15 11:15:43;;;;;;;6.53;3.10;;;;;;;;;;5032457;28;20245;-89
2023/08/15 11:18:10;;;;;;;2.88;2.22;;;;;;;;;;5051131;28;20490;-89
2023/08/15 11:20:38;;;;;;;3.63;2.60;;;;;;;;;;5051025;28;20206;-89
2023/08/15 11:23:06;;;;;;;5.50;2.42;;;;;;;;;;5045088;28;20250;-89
2023/08/15 11:25:34;;;;;;;4.90;2.50;;;;;;;;;;5039180;28;20226;-89
2023/08/15 11:28:01;;;;;;;6.32;2.60;;;;;;;;;;5050354;28;20646;-89
2023/08/15 11:30:29;;;;;;;4.30;2.22;;;;;;;;;;5051214;28;20592;-89
2023/08/15 11:32:56;;;;;;;4.13;2.20;;;;;;;;;;5047858;28;20803;-89
2023/08/15 11:35:23;;;;;;;2.47;2.28;;;;;;;;;;5036550;28;20249;-88
2023/08/15 11:37:51;;;;;;;5.05;2.20;;;;;;;;;;5040806;28;20230;-89
2023/08/15 11:40:19;;;;;;;3.45;2.28;;;;;;;;;;5051094;28;20267;-89
2023/08/15 11:42:47;;;;;;;2.13;2.03;;;;;;;;;;5049623;28;20236;-88
2023/08/15 11:45:18;;;;;;;2.63;2.00;;;;;;;;;;5039414;28;20234;-89
2023/08/15 11:47:58;;;;;;;3.00;2.08;;;;;;;;;;5046605;28;20248;-89
2023/08/15 11:50:26;;;;;;;3.53;2.35;;;;;;;;;;5046137;28;20281;-89
2023/08/15 11:52:53;;;;;;;2.17;1.98;;;;;;;;;;5041129;28;20688;-89
2023/08/15 11:55:22;;;;;;;3.40;1.83;;;;;;;;;;5045268;28;20226;-87
2023/08/15 11:57:50;;;;;;;2.30;2.10;;;;;;;;;;5050410;28;20237;-88
2023/08/15 12:00:18;;;;;;;5.03;2.03;;;;;;;;;;5040071;28;20293;-88
2023/08/15 12:02:45;;;;;;;3.72;1.90;;;;;;;;;;5048127;28;20233;-89
2023/08/15 12:05:13;;;;;;;3.00;2.30;;;;;;;;;;5037525;28;20603;-89
2023/08/15 12:07:40;;;;;;;2.83;2.17;;;;;;;;;;5049677;28;20237;-89
2023/08/15 12:10:08;;;;;;;4.43;2.20;;;;;;;;;;5047195;28;20218;-89
2023/08/15 12:12:40;;;;;;;3.65;2.10;;;;;;;;;;5046516;28;20226;-89
2023/08/15 12:15:08;;;;;;;2.42;2.10;;;;;;;;;;5045720;28;20234;-88
2023/08/15 12:17:35;;;;;;;3.67;2.08;;;;;;;;;;5044318;28;20271;-88
2023/08/15 12:20:03;;;;;;;2.47;2.05;;;;;;;;;;5051530;28;20206;-89
2023/08/15 12:22:30;;;;;;;2.08;1.77;;;;;;;;;;5042393;28;20230;-90
2023/08/15 12:24:58;;;;;;;3.90;2.20;;;;;;;;;;5043471;28;20226;-88
2023/08/15 12:27:26;;;;;;;2.03;1.70;;;;;;;;;;5042017;28;20226;-87
2023/08/15 12:29:54;;;;;;;4.80;2.42;;;;;;;;;;5042669;28;20277;-86
2023/08/15 12:32:22;;;;;;;4.40;2.50;;;;;;;;;;5031980;28;20325;-87
2023/08/15 12:34:49;;;;;;;2.83;2.30;;;;;;;;;;5035647;28;20235;-87
2023/08/15 12:37:16;;;;;;;2.85;2.35;;;;;;;;;;5047629;28;20238;-88
2023/08/15 12:39:43;;;;;;;3.03;2.10;;;;;;;;;;5052324;28;20209;-87
2023/08/15 12:42:10;;;;;;;5.97;2.33;;;;;;;;;;5053040;28;20256;-87
2023/08/15 12:44:37;;;;;;;2.60;2.00;;;;;;;;;;5044815;28;20229;-88
2023/08/15 12:47:06;;;;;;;3.90;2.40;;;;;;;;;;5045072;28;20229;-86
2023/08/15 12:49:33;;;;;;;2.70;2.10;;;;;;;;;;5051992;28;20235;-89
2023/08/15 12:52:00;;;;;;;2.88;2.30;;;;;;;;;;5053006;28;20382;-87
2023/08/15 12:54:27;;;;;;;2.42;2.00;;;;;;;;;;5045517;28;20233;-90
2023/08/15 12:56:54;;;;;;;3.88;2.35;;;;;;;;;;5045012;28;20226;-90
2023/08/15 12:59:21;;;;;;;2.25;2.03;;;;;;;;;;5048105;28;20222;-89
2023/08/15 13:01:48;;;;;;;1.88;1.75;;;;;;;;;;5043818;28;20646;-90
2023/08/15 13:04:16;;;;;;;2.42;2.03;;;;;;;;;;5048918;28;20237;-88
2023/08/15 13:06:43;;;;;;;3.80;2.33;;;;;;;;;;5042510;28;20233;-90
2023/08/15 13:09:11;;;;;;;2.60;2.00;;;;;;;;;;5054030;28;20210;-88
2023/08/15 13:11:38;;;;;;;2.75;2.20;;;;;;;;;;5053842;28;20237;-89
2023/08/15 13:14:05;;;;;;;3.42;2.20;;;;;;;;;;5043845;28;20799;-90
2023/08/15 13:16:33;;;;;;;4.22;2.28;;;;;;;;;;5052286;28;20230;-90
2023/08/15 13:19:01;;;;;;;4.25;2.30;;;;;;;;;;5047017;28;20203;-90
2023/08/15 13:21:29;;;;;;;2.78;2.38;;;;;;;;;;5050054;28;20226;-91
2023/08/15 13:23:56;;;;;;;2.08;1.95;;;;;;;;;;5035607;28;20692;-90
2023/08/15 13:26:23;;;;;;;2.40;2.20;;;;;;;;;;5034127;28;20230;-92
2023/08/15 13:28:51;;;;;;;3.55;2.35;;;;;;;;;;5035585;28;20297;-90
2023/08/15 13:31:18;;;;;;;2.78;2.15;;;;;;;;;;5037703;28;20230;-89
2023/08/15 13:33:46;;;;;;;2.40;2.20;;;;;;;;;;5041341;28;20213;-89
2023/08/15 13:36:13;;;;;;;3.80;2.10;;;;;;;;;;5040765;28;20230;-89
2023/08/15 13:38:41;;;;;;;4.70;2.42;;;;;;;;;;5033170;28;20206;-89
2023/08/15 13:41:08;;;;;;;3.70;2.15;;;;;;;;;;5044621;28;20473;-88
2023/08/15 13:43:36;;;;;;;2.72;2.35;;;;;;;;;;5036685;28;20731;-87
2023/08/15 13:46:03;;;;;;;2.92;2.38;;;;;;;;;;5030829;28;20409;-89
2023/08/15 13:48:31;;;;;;;3.40;2.25;;;;;;;;;;5032998;28;20237;-88
2023/08/15 13:50:59;;;;;;;2.53;2.30;;;;;;;;;;5052381;28;20206;-88
2023/08/15 13:53:26;;;;;;;4.47;2.28;;;;;;;;;;5054050;28;20289;-87
2023/08/15 13:55:55;;;;;;;2.83;2.00;;;;;;;;;;5036587;28;20223;-90
2023/08/15 13:58:22;;;;;;;4.70;2.45;;;;;;;;;;5040992;28;20207;-90
2023/08/15 14:00:49;;;;;;;4.28;2.47;;;;;;;;;;5033573;28;20660;-90
2023/08/15 14:03:16;;;;;;;5.65;2.97;;;;;;;;;;5034239;28;20238;-90
2023/08/15 14:05:43;;;;;;;3.33;2.28;;;;;;;;;;5041212;28;20230;-90
2023/08/15 14:08:10;;;;;;;3.80;2.78;;;;;;;;;;5037945;28;20233;-90
2023/08/15 14:10:38;;;;;;;3.58;2.33;;;;;;;;;;5053840;28;20213;-90
2023/08/15 14:13:07;;;;;;;4.15;2.70;;;;;;;;;;5046268;28;20226;-90
2023/08/15 14:15:36;;;;;;;6.05;2.92;;;;;;;;;;5039596;28;20223;-89
2023/08/15 14:18:04;;;;;;;3.33;2.63;;;;;;;;;;5040245;28;20261;-89
2023/08/15 14:20:31;;;;;;;10.23;2.80;;;;;;;;;;5032690;28;20621;-89
2023/08/15 14:22:59;;;;;;;4.68;2.60;;;;;;;;;;5040422;28;20630;-88
2023/08/15 14:25:26;;;;;;;3.55;2.45;;;;;;;;;;5032325;28;20227;-87
2023/08/15 14:27:53;;;;;;;4.35;2.50;;;;;;;;;;5039626;28;20232;-87
2023/08/15 14:30:21;;;;;;;3.30;2.38;;;;;;;;;;5033279;28;20210;-89
2023/08/15 14:32:48;;;;;;;4.68;2.67;;;;;;;;;;5033805;28;20329;-89
2023/08/15 14:35:15;;;;;;;4.43;2.85;;;;;;;;;;5054598;28;20225;-89
2023/08/15 14:37:42;;;;;;;2.00;1.80;;;;;;;;;;5055237;28;20223;-87
2023/08/15 14:40:10;;;;;;;4.20;2.40;;;;;;;;;;5055324;28;20197;-85
2023/08/15 14:42:38;;;;;;;3.80;2.40;;;;;;;;;;5070496;28;20241;-87
2023/08/15 14:45:05;;;;;;;4.93;2.75;;;;;;;;;;5062605;28;20216;-86